createdAt,value
2018-09-14T00:02:18.358Z,99864.32
2018-09-14T00:04:47.406Z,99869.02
2018-09-14T00:07:16.604Z,99865.58
2018-09-14T00:09:45.715Z,99862.13
2018-09-14T00:12:14.778Z,99855.67
2018-09-14T00:14:43.797Z,99849.88
2018-09-14T00:17:12.808Z,99855.53
2018-09-14T00:19:41.767Z,99853.01
2018-09-14T00:22:10.711Z,99856.58
2018-09-14T00:24:39.796Z,99856.33
2018-09-14T00:27:08.812Z,99849.53
2018-09-14T00:29:37.897Z,99858.62
2018-09-14T00:32:06.904Z,99853.17
2018-09-14T00:34:35.932Z,99849.39
2018-09-14T00:37:04.942Z,99850.00
2018-09-14T00:39:33.994Z,99845.45
2018-09-14T00:42:02.976Z,99850.44
2018-09-14T00:44:31.937Z,99849.83
2018-09-14T00:47:00.997Z,99843.29
2018-09-14T00:49:30.061Z,99841.31
2018-09-14T00:51:59.015Z,99838.45
2018-09-14T00:54:27.968Z,99841.61
2018-09-14T00:56:56.970Z,99836.86
2018-09-14T00:59:25.981Z,99838.66
2018-09-14T01:01:54.992Z,99838.47
2018-09-14T01:04:23.923Z,99839.90
2018-09-14T01:06:52.962Z,99842.62
2018-09-14T01:09:26.606Z,99841.41
2018-09-14T01:11:56.970Z,99845.09
2018-09-14T01:14:26.628Z,99844.38
2018-09-14T01:16:56.235Z,99839.94
2018-09-14T01:19:25.528Z,99839.53
2018-09-14T01:21:54.496Z,99840.28
2018-09-14T01:24:23.479Z,99844.20
2018-09-14T01:26:52.492Z,99845.16
2018-09-14T01:29:21.455Z,99841.14
2018-09-14T01:31:50.492Z,99848.36
2018-09-14T01:34:19.491Z,99849.55
2018-09-14T01:36:48.424Z,99841.83
2018-09-14T01:39:17.428Z,99843.45
2018-09-14T01:41:46.384Z,99841.01
2018-09-14T01:44:15.347Z,99835.38
2018-09-14T01:46:44.304Z,99832.47
2018-09-14T01:49:13.242Z,99832.27
2018-09-14T01:54:08.209Z,99831.48
2018-09-14T01:56:37.290Z,99831.84
2018-09-14T01:59:06.253Z,99836.23
2018-09-14T02:01:35.223Z,99837.20
2018-09-14T02:04:04.324Z,99838.16
2018-09-14T02:06:33.431Z,99837.98
2018-09-14T02:09:02.418Z,99839.97
2018-09-14T02:11:31.448Z,99844.25
2018-09-14T02:14:00.471Z,99838.75
2018-09-14T02:16:29.425Z,99839.58
2018-09-14T02:18:58.432Z,99848.63
2018-09-14T02:21:27.419Z,99847.48
2018-09-14T02:23:56.416Z,99840.38
2018-09-14T02:26:25.376Z,99846.23
2018-09-14T02:28:54.376Z,99849.16
2018-09-14T02:31:23.384Z,99855.86
2018-09-14T02:33:52.363Z,99854.61
2018-09-14T02:36:21.408Z,99856.08
2018-09-14T02:38:50.335Z,99853.81
2018-09-14T02:41:19.306Z,99850.58
2018-09-14T02:43:48.336Z,99850.26
2018-09-14T02:46:17.411Z,99853.52
2018-09-14T02:48:46.408Z,99847.16
2018-09-14T02:51:15.387Z,99849.45
2018-09-14T02:53:44.456Z,99846.22
2018-09-14T02:56:13.397Z,99840.28
2018-09-14T02:58:42.348Z,99843.61
2018-09-14T03:01:11.309Z,99840.17
2018-09-14T03:03:40.268Z,99839.73
2018-09-14T03:06:09.226Z,99846.81
2018-09-14T03:08:38.344Z,99850.58
2018-09-14T03:11:07.320Z,99849.84
2018-09-14T03:13:36.273Z,99846.95
2018-09-14T03:16:05.279Z,99849.14
2018-09-14T03:18:34.211Z,99848.23
2018-09-14T03:21:03.171Z,99847.60
2018-09-14T03:23:32.119Z,99858.66
2018-09-14T03:26:01.189Z,99857.72
2018-09-14T03:28:30.290Z,99859.83
2018-09-14T03:30:59.315Z,99862.13
2018-09-14T03:33:28.284Z,99872.02
2018-09-14T03:35:57.223Z,99878.72
2018-09-14T03:38:26.193Z,99871.83
2018-09-14T03:40:55.144Z,99876.63
2018-09-14T03:43:24.209Z,99877.98
2018-09-14T03:45:53.204Z,99876.00
2018-09-14T03:48:22.183Z,99884.13
2018-09-14T03:50:51.192Z,99886.00
2018-09-14T03:53:20.208Z,99891.86
2018-09-14T03:55:49.147Z,99888.38
2018-09-14T03:58:18.225Z,99893.48
2018-09-14T04:00:47.180Z,99894.84
2018-09-14T04:03:16.127Z,99901.82
2018-09-14T04:05:45.095Z,99900.98
2018-09-14T04:08:14.053Z,99900.89
2018-09-14T04:10:43.064Z,99906.53
2018-09-14T04:13:12.120Z,99903.94
2018-09-14T04:15:41.224Z,99907.27
2018-09-14T04:18:10.229Z,99906.83
2018-09-14T04:20:39.179Z,99908.48
2018-09-14T04:23:08.136Z,99909.33
2018-09-14T04:25:37.074Z,99897.31
2018-09-14T04:28:06.168Z,99895.22
2018-09-14T04:30:35.240Z,99887.37
2018-09-14T04:33:04.299Z,99893.39
2018-09-14T04:35:33.275Z,99892.56
2018-09-14T04:38:02.349Z,99898.65
2018-09-14T04:40:31.348Z,99899.55
2018-09-14T04:43:00.400Z,99897.81
2018-09-14T04:45:29.368Z,99896.10
2018-09-14T04:47:58.309Z,99899.08
2018-09-14T04:50:27.260Z,99896.02
2018-09-14T04:52:56.269Z,99894.80
2018-09-14T04:55:25.358Z,99895.55
2018-09-14T04:57:54.311Z,99898.81
2018-09-14T05:00:23.309Z,99897.03
2018-09-14T05:02:52.527Z,99897.03
2018-09-14T05:05:21.446Z,99901.70
2018-09-14T05:07:50.449Z,99901.34
2018-09-14T05:10:19.412Z,99909.78
2018-09-14T05:12:48.413Z,99910.70
2018-09-14T05:15:17.410Z,99915.11
2018-09-14T05:17:46.380Z,99912.31
2018-09-14T05:20:15.358Z,99909.96
2018-09-14T05:22:44.291Z,99908.48
2018-09-14T05:25:13.319Z,99911.67
2018-09-14T05:27:42.317Z,99911.90
2018-09-14T05:30:11.345Z,99911.06
2018-09-14T05:32:40.317Z,99912.48
2018-09-14T05:35:09.328Z,99911.42
2018-09-14T05:37:38.325Z,99904.27
2018-09-14T05:40:07.268Z,99907.05
2018-09-14T05:42:36.220Z,99908.02
2018-09-14T05:45:05.163Z,99910.08
2018-09-14T05:47:34.160Z,99903.66
2018-09-14T05:50:03.112Z,99914.09
2018-09-14T05:52:32.065Z,99925.14
2018-09-14T05:55:01.006Z,99921.39
2018-09-14T05:57:30.087Z,99923.71
2018-09-14T05:59:59.079Z,99928.22
2018-09-14T06:02:28.053Z,99932.90
2018-09-14T06:04:57.093Z,99942.38
2018-09-14T06:07:26.103Z,99939.61
2018-09-14T06:09:55.125Z,99935.79
2018-09-14T06:12:24.086Z,99941.05
2018-09-14T06:14:53.036Z,99941.05
2018-09-14T06:17:22.041Z,99934.06
2018-09-14T06:19:51.081Z,99936.91
2018-09-14T06:22:20.045Z,99936.02
2018-09-14T06:24:49.034Z,99934.87
2018-09-14T06:27:18.102Z,99941.09
2018-09-14T06:29:47.063Z,99944.97
2018-09-14T06:32:16.038Z,99943.73
2018-09-14T06:34:45.023Z,99940.70
2018-09-14T06:37:14.117Z,99940.56
2018-09-14T06:39:43.158Z,99935.47
2018-09-14T06:42:12.252Z,99936.76
2018-09-14T06:44:41.268Z,99943.34
2018-09-14T06:47:10.288Z,99937.84
2018-09-14T06:49:39.394Z,99931.54
2018-09-14T06:52:08.726Z,99930.17
2018-09-14T06:54:37.860Z,99932.81
2018-09-14T06:57:06.853Z,99931.63
2018-09-14T06:59:35.878Z,99935.33
2018-09-14T07:02:04.864Z,99933.53
2018-09-14T07:04:34.000Z,99936.89
2018-09-14T07:07:02.990Z,99937.84
2018-09-14T07:09:31.988Z,99943.23
2018-09-14T07:12:01.047Z,99936.50
2018-09-14T07:14:30.025Z,99944.31
2018-09-14T07:16:59.012Z,99941.25
2018-09-14T07:19:28.008Z,99946.72
2018-09-14T07:21:57.147Z,99938.94
2018-09-14T07:24:26.261Z,99938.38
2018-09-14T07:26:55.270Z,99943.60
2018-09-14T07:29:24.267Z,99935.91
2018-09-14T07:31:53.371Z,99937.05
2018-09-14T07:34:22.315Z,99934.77
2018-09-14T07:36:51.367Z,99936.06
2018-09-14T07:39:20.458Z,99934.22
2018-09-14T07:41:49.427Z,99937.05
2018-09-14T07:44:18.485Z,99928.58
2018-09-14T07:46:47.544Z,99930.83
2018-09-14T07:49:16.667Z,99927.55
2018-09-14T07:51:45.727Z,99930.92
2018-09-14T07:54:14.703Z,99924.88
2018-09-14T07:56:43.829Z,99923.00
2018-09-14T07:59:12.880Z,99926.55
2018-09-14T08:01:41.871Z,99927.11
2018-09-14T08:04:10.791Z,99924.09
2018-09-14T08:06:39.779Z,99923.30
2018-09-14T08:09:11.618Z,99927.42
2018-09-14T08:11:40.829Z,99925.48
2018-09-14T08:14:10.174Z,99929.37
2018-09-14T08:16:39.252Z,99923.30
2018-09-14T08:19:08.469Z,99923.25
2018-09-14T08:21:37.653Z,99924.64
2018-09-14T08:24:06.574Z,99930.98
2018-09-14T08:26:35.548Z,99934.81
2018-09-14T08:29:04.609Z,99931.48
2018-09-14T08:31:33.605Z,99930.38
2018-09-14T08:34:02.672Z,99933.89
2018-09-14T08:36:31.668Z,99929.23
2018-09-14T08:39:00.693Z,99930.57
2018-09-14T08:41:29.644Z,99923.63
2018-09-14T08:43:58.628Z,99922.47
2018-09-14T08:46:27.606Z,99925.95
2018-09-14T08:48:56.637Z,99922.62
2018-09-14T08:51:25.659Z,99929.95
2018-09-14T08:53:54.711Z,99919.86
2018-09-14T08:56:23.646Z,99921.70
2018-09-14T08:58:52.667Z,99923.36
2018-09-14T09:01:21.601Z,99919.77
2018-09-14T09:03:50.612Z,99929.74
2018-09-14T09:06:19.556Z,99929.04
2018-09-14T09:08:48.536Z,99916.23
2018-09-14T09:11:17.549Z,99928.08
2018-09-14T09:13:46.619Z,99928.16
2018-09-14T09:16:15.586Z,99927.67
2018-09-14T09:18:44.602Z,99929.27
2018-09-14T09:21:13.694Z,99927.60
2018-09-14T09:23:42.657Z,99920.77
2018-09-14T09:26:11.846Z,99921.77
2018-09-14T09:28:40.873Z,99922.52
2018-09-14T09:31:10.054Z,99923.61
2018-09-14T09:33:39.096Z,99918.48
2018-09-14T09:36:09.047Z,99920.16
2018-09-14T09:38:38.075Z,99905.67
2018-09-14T09:41:07.743Z,99903.81
2018-09-14T09:43:36.941Z,99904.36
2018-09-14T09:46:05.987Z,99895.30
2018-09-14T09:48:35.050Z,99901.64
2018-09-14T09:51:04.100Z,99900.55
2018-09-14T09:53:33.041Z,99901.56
2018-09-14T09:56:02.020Z,99895.59
2018-09-14T09:58:31.234Z,99896.00
2018-09-14T10:01:05.292Z,99888.28
2018-09-14T10:03:39.455Z,99886.58
2018-09-14T10:06:13.318Z,99879.37
2018-09-14T10:08:42.556Z,99885.38
2018-09-14T10:11:11.510Z,99875.94
2018-09-14T10:13:40.458Z,99868.98
2018-09-14T10:16:09.487Z,99867.71
2018-09-14T10:18:38.442Z,99870.09
2018-09-14T10:21:07.610Z,99873.17
2018-09-14T10:23:36.628Z,99866.64
2018-09-14T10:26:05.881Z,99861.67
2018-09-14T10:28:34.867Z,99856.67
2018-09-14T10:31:03.933Z,99867.93
2018-09-14T10:33:32.986Z,99860.75
2018-09-14T10:36:01.943Z,99857.46
2018-09-14T10:38:30.897Z,99845.69
2018-09-14T10:40:59.843Z,99843.30
2018-09-14T10:43:28.919Z,99834.38
2018-09-14T10:45:58.002Z,99833.98
2018-09-14T10:48:26.997Z,99829.97
2018-09-14T10:50:55.984Z,99822.59
2018-09-14T10:53:24.947Z,99832.37
2018-09-14T10:55:53.943Z,99826.86
2018-09-14T10:58:22.899Z,99823.63
2018-09-14T11:00:51.968Z,99821.16
2018-09-14T11:03:20.931Z,99819.77
2018-09-14T11:05:49.911Z,99814.83
2018-09-14T11:08:18.937Z,99817.73
2018-09-14T11:10:47.947Z,99816.67
2018-09-14T11:13:16.912Z,99809.95
2018-09-14T11:15:45.935Z,99811.73
2018-09-14T11:18:14.989Z,99814.59
2018-09-14T11:20:45.438Z,99808.42
2018-09-14T11:23:14.481Z,99814.75
2018-09-14T11:25:43.499Z,99810.19
2018-09-14T11:28:12.522Z,99810.73
2018-09-14T11:30:41.460Z,99816.38
2018-09-14T11:33:10.498Z,99803.11
2018-09-14T11:35:39.512Z,99806.78
2018-09-14T11:38:08.627Z,99794.53
2018-09-14T11:40:37.694Z,99808.77
2018-09-14T11:43:06.694Z,99806.55
2018-09-14T11:45:35.712Z,99805.16
2018-09-14T11:48:04.708Z,99805.38
2018-09-14T11:50:33.737Z,99802.45
2018-09-14T11:53:02.740Z,99799.21
2018-09-14T11:55:31.778Z,99805.91
2018-09-14T11:58:00.891Z,99790.02
2018-09-14T12:00:29.967Z,99787.55
2018-09-14T12:02:58.975Z,99792.20
2018-09-14T12:05:27.924Z,99798.86
2018-09-14T12:07:56.936Z,99788.16
2018-09-14T12:10:25.907Z,99791.78
2018-09-14T12:12:54.872Z,99796.16
2018-09-14T12:15:23.832Z,99788.42
2018-09-14T12:17:52.800Z,99790.27
2018-09-14T12:20:21.783Z,99788.21
2018-09-14T12:22:50.879Z,99783.80
2018-09-14T12:25:19.834Z,99794.70
2018-09-14T12:27:48.787Z,99795.55
2018-09-14T12:30:17.784Z,99796.94
2018-09-14T12:32:46.841Z,99788.78
2018-09-14T12:35:15.889Z,99788.91
2018-09-14T12:37:44.838Z,99785.74
2018-09-14T12:40:13.817Z,99782.53
2018-09-14T12:42:42.755Z,99788.58
2018-09-14T12:45:11.815Z,99776.38
2018-09-14T12:47:40.756Z,99782.40
2018-09-14T12:50:09.768Z,99776.17
2018-09-14T12:52:38.754Z,99771.08
2018-09-14T12:55:07.754Z,99770.30
2018-09-14T12:57:36.696Z,99767.02
2018-09-14T13:00:05.761Z,99765.89
2018-09-14T13:02:34.724Z,99770.91
2018-09-14T13:05:03.646Z,99765.11
2018-09-14T13:07:32.697Z,99755.19
2018-09-14T13:10:02.793Z,99760.13
2018-09-14T13:12:31.737Z,99755.19
2018-09-14T13:15:00.778Z,99757.58
2018-09-14T13:17:29.668Z,99760.75
2018-09-14T13:19:58.636Z,99755.19
2018-09-14T13:22:27.595Z,99753.69
2018-09-14T13:24:56.551Z,99752.65
2018-09-14T13:27:25.560Z,99751.42
2018-09-14T13:29:54.611Z,99756.84
2018-09-14T13:32:23.606Z,99749.66
2018-09-14T13:34:52.613Z,99753.28
2018-09-14T13:37:21.636Z,99756.00
2018-09-14T13:39:50.595Z,99752.67
2018-09-14T13:42:19.630Z,99747.60
2018-09-14T13:44:48.618Z,99744.28
2018-09-14T13:47:17.619Z,99744.53
2018-09-14T13:49:46.640Z,99746.23
2018-09-14T13:52:15.673Z,99739.46
2018-09-14T13:54:44.685Z,99741.02
2018-09-14T13:57:13.691Z,99743.55
2018-09-14T13:59:42.749Z,99736.58
2018-09-14T14:02:11.788Z,99736.06
2018-09-14T14:04:40.891Z,99738.25
2018-09-14T14:07:09.845Z,99733.98
2018-09-14T14:09:38.868Z,99735.52
2018-09-14T14:12:07.861Z,99734.06
2018-09-14T14:14:36.884Z,99734.82
2018-09-14T14:17:06.032Z,99737.48
2018-09-14T14:19:34.965Z,99732.10
2018-09-14T14:22:03.928Z,99739.75
2018-09-14T14:24:32.905Z,99738.07
2018-09-14T14:27:02.075Z,99737.06
2018-09-14T14:29:31.031Z,99736.02
2018-09-14T14:32:00.013Z,99741.95
2018-09-14T14:34:29.062Z,99737.61
2018-09-14T14:36:58.079Z,99739.09
2018-09-14T14:39:27.033Z,99743.03
2018-09-14T14:41:56.023Z,99738.78
2018-09-14T14:44:25.075Z,99743.77
2018-09-14T14:46:54.019Z,99746.44
2018-09-14T14:49:23.138Z,99743.57
2018-09-14T14:51:52.243Z,99742.52
2018-09-14T14:54:21.252Z,99742.25
2018-09-14T14:56:50.259Z,99741.17
2018-09-14T14:59:19.435Z,99749.18
2018-09-14T15:01:48.507Z,99749.50
2018-09-14T15:04:17.599Z,99746.00
2018-09-14T15:06:46.699Z,99741.20
2018-09-14T15:09:15.668Z,99740.71
2018-09-14T15:11:44.697Z,99740.28
2018-09-14T15:14:13.624Z,99746.49
2018-09-14T15:16:42.590Z,99749.63
2018-09-14T15:19:11.600Z,99747.77
2018-09-14T15:21:40.616Z,99750.63
2018-09-14T15:24:09.584Z,99753.47
2018-09-14T15:26:38.560Z,99760.18
2018-09-14T15:29:07.668Z,99760.22
2018-09-14T15:31:36.603Z,99766.63
2018-09-14T15:34:05.588Z,99763.39
2018-09-14T15:36:34.556Z,99768.98
2018-09-14T15:39:03.690Z,99774.31
2018-09-14T15:41:32.687Z,99771.33
2018-09-14T15:44:01.634Z,99769.70
2018-09-14T15:46:30.584Z,99767.81
2018-09-14T15:48:59.594Z,99777.23
2018-09-14T15:51:28.533Z,99784.15
2018-09-14T15:53:57.488Z,99783.33
2018-09-14T15:56:26.513Z,99778.95
2018-09-14T15:58:55.496Z,99773.47
2018-09-14T16:01:24.488Z,99778.45
2018-09-14T16:03:53.480Z,99778.98
2018-09-14T16:06:22.636Z,99785.34
2018-09-14T16:08:51.678Z,99780.95
2018-09-14T16:11:20.733Z,99783.42
2018-09-14T16:13:49.900Z,99785.08
2018-09-14T16:16:18.909Z,99779.87
2018-09-14T16:18:47.879Z,99781.45
2018-09-14T16:21:16.932Z,99784.47
2018-09-14T16:23:46.069Z,99787.21
2018-09-14T16:26:15.053Z,99783.86
2018-09-14T16:28:44.010Z,99792.34
2018-09-14T16:31:13.081Z,99790.30
2018-09-14T16:33:42.099Z,99793.81
2018-09-14T16:36:11.078Z,99797.58
2018-09-14T16:38:40.077Z,99800.53
2018-09-14T16:41:09.049Z,99794.95
2018-09-14T16:43:38.040Z,99794.80
2018-09-14T16:46:07.027Z,99804.05
2018-09-14T16:48:36.100Z,99803.41
2018-09-14T16:51:05.052Z,99813.15
2018-09-14T16:53:34.019Z,99810.85
2018-09-14T16:56:02.980Z,99813.67
2018-09-14T16:58:31.928Z,99810.80
2018-09-14T17:01:00.892Z,99814.50
2018-09-14T17:03:30.029Z,99814.92
2018-09-14T17:05:58.996Z,99818.11
2018-09-14T17:08:27.962Z,99821.59
2018-09-14T17:10:56.989Z,99823.08
2018-09-14T17:13:26.005Z,99824.86
2018-09-14T17:15:54.975Z,99834.06
2018-09-14T17:18:23.947Z,99840.77
2018-09-14T17:20:52.906Z,99841.73
2018-09-14T17:23:21.995Z,99841.05
2018-09-14T17:25:50.964Z,99846.17
2018-09-14T17:28:19.950Z,99849.05
2018-09-14T17:30:49.250Z,99849.66
2018-09-14T17:33:18.260Z,99855.25
2018-09-14T17:35:47.239Z,99850.20
2018-09-14T17:38:16.315Z,99869.72
2018-09-14T17:40:45.300Z,99862.22
2018-09-14T17:43:14.301Z,99863.19
2018-09-14T17:45:43.373Z,99862.52
2018-09-14T17:48:12.328Z,99865.44
2018-09-14T17:50:41.282Z,99864.77
2018-09-14T17:53:10.288Z,99870.15
2018-09-14T17:55:39.267Z,99872.77
2018-09-14T17:58:08.271Z,99879.22
2018-09-14T18:00:37.247Z,99883.20
2018-09-14T18:03:06.235Z,99887.27
2018-09-14T18:05:35.254Z,99885.25
2018-09-14T18:08:04.274Z,99884.09
2018-09-14T18:10:33.233Z,99886.70
2018-09-14T18:13:02.206Z,99892.37
2018-09-14T18:15:31.479Z,99889.78
2018-09-14T18:18:00.454Z,99892.42
2018-09-14T18:20:29.428Z,99887.06
2018-09-14T18:22:58.372Z,99887.03
2018-09-14T18:25:27.385Z,99885.25
2018-09-14T18:27:56.407Z,99883.25
2018-09-14T18:30:25.419Z,99880.06
2018-09-14T18:32:54.397Z,99884.86
2018-09-14T18:35:23.372Z,99879.59
2018-09-14T18:37:52.362Z,99879.23
2018-09-14T18:40:21.334Z,99878.33
2018-09-14T18:42:50.392Z,99877.93
2018-09-14T18:45:19.423Z,99884.69
2018-09-14T18:47:48.432Z,99879.76
2018-09-14T18:50:17.392Z,99876.43
2018-09-14T18:52:46.454Z,99876.93
2018-09-14T18:55:15.446Z,99880.42
2018-09-14T18:57:44.410Z,99875.80
2018-09-14T19:00:13.432Z,99879.52
2018-09-14T19:02:42.425Z,99871.33
2018-09-14T19:05:11.426Z,99874.36
2018-09-14T19:07:40.420Z,99878.45
2018-09-14T19:10:09.526Z,99878.16
2018-09-14T19:12:38.493Z,99879.22
2018-09-14T19:15:08.111Z,99887.10
2018-09-14T19:17:37.060Z,99890.04
2018-09-14T19:20:06.042Z,99890.67
2018-09-14T19:22:34.998Z,99893.41
2018-09-14T19:25:03.976Z,99891.44
2018-09-14T19:27:32.940Z,99897.09
2018-09-14T19:30:01.914Z,99892.93
2018-09-14T19:32:30.926Z,99896.95
2018-09-14T19:34:59.928Z,99904.13
2018-09-14T19:37:29.094Z,99901.89
2018-09-14T19:39:58.083Z,99914.02
2018-09-14T19:42:27.024Z,99918.61
2018-09-14T19:44:55.989Z,99914.92
2018-09-14T19:47:24.924Z,99915.58
2018-09-14T19:49:53.915Z,99914.52
2018-09-14T19:52:22.863Z,99913.58
2018-09-14T19:54:51.808Z,99910.41
2018-09-14T19:57:20.756Z,99913.31
2018-09-14T19:59:49.780Z,99907.14
2018-09-14T20:02:18.760Z,99905.81
2018-09-14T20:04:47.708Z,99919.91
2018-09-14T20:07:16.651Z,99904.98
2018-09-14T20:09:45.609Z,99906.88
2018-09-14T20:12:14.562Z,99905.02
2018-09-14T20:14:43.517Z,99907.79
2018-09-14T20:17:12.554Z,99907.03
2018-09-14T20:19:41.472Z,99910.21
2018-09-14T20:22:10.534Z,99911.00
2018-09-14T20:24:39.511Z,99913.12
2018-09-14T20:27:08.445Z,99918.19
2018-09-14T20:29:37.428Z,99917.23
2018-09-14T20:32:06.388Z,99914.05
2018-09-14T20:34:35.476Z,99913.92
2018-09-14T20:37:04.443Z,99917.89
2018-09-14T20:39:33.498Z,99919.31
2018-09-14T20:42:02.454Z,99916.06
2018-09-14T20:44:31.373Z,99918.18
2018-09-14T20:47:00.346Z,99917.30
2018-09-14T20:49:29.313Z,99918.88
2018-09-14T20:51:58.246Z,99915.63
2018-09-14T20:54:27.175Z,99919.23
2018-09-14T20:56:56.135Z,99921.38
2018-09-14T20:59:25.075Z,99924.41
2018-09-14T21:01:54.083Z,99925.77
2018-09-14T21:04:23.090Z,99922.27
2018-09-14T21:06:51.987Z,99914.70
2018-09-14T21:09:20.943Z,99917.13
2018-09-14T21:11:49.858Z,99913.79
2018-09-14T21:14:18.812Z,99916.52
2018-09-14T21:16:47.762Z,99916.69
2018-09-14T21:19:16.705Z,99918.03
2018-09-14T21:21:45.647Z,99919.53
2018-09-14T21:24:14.895Z,99922.78
2018-09-14T21:26:43.831Z,99921.68
2018-09-14T21:29:12.793Z,99924.41
2018-09-14T21:31:42.065Z,99929.23
2018-09-14T21:34:11.045Z,99926.21
2018-09-14T21:36:40.014Z,99934.52
2018-09-14T21:39:11.073Z,99935.88
2018-09-14T21:41:40.302Z,99935.27
2018-09-14T21:44:09.757Z,99930.13
2018-09-14T21:46:38.811Z,99930.30
2018-09-14T21:49:07.961Z,99933.16
2018-09-14T21:51:36.908Z,99932.86
2018-09-14T21:54:05.955Z,99927.36
2018-09-14T21:56:34.871Z,99927.05
2018-09-14T21:59:03.824Z,99932.27
2018-09-14T22:01:32.798Z,99929.55
2018-09-14T22:04:02.083Z,99927.10
2018-09-14T22:06:31.023Z,99932.50
2018-09-14T22:08:59.977Z,99933.33
2018-09-14T22:11:28.936Z,99930.61
2018-09-14T22:13:57.952Z,99930.61
2018-09-14T22:16:26.906Z,99926.00
2018-09-14T22:18:55.842Z,99930.08
2018-09-14T22:21:24.834Z,99926.35
2018-09-14T22:23:53.780Z,99929.16
2018-09-14T22:26:22.751Z,99931.48
2018-09-14T22:28:51.684Z,99935.13
2018-09-14T22:31:20.644Z,99931.35
2018-09-14T22:33:49.612Z,99922.43
2018-09-14T22:36:18.623Z,99918.66
2018-09-14T22:38:47.577Z,99916.16
2018-09-14T22:41:16.572Z,99916.52
2018-09-14T22:43:45.806Z,99915.10
2018-09-14T22:46:14.941Z,99917.87
2018-09-14T22:48:43.896Z,99915.63
2018-09-14T22:51:12.835Z,99914.93
2018-09-14T22:53:41.856Z,99915.00
2018-09-14T22:56:10.911Z,99921.97
2018-09-14T22:58:39.934Z,99920.87
2018-09-14T23:01:14.064Z,99934.06
2018-09-14T23:03:43.057Z,99930.73
2018-09-14T23:06:12.007Z,99929.55
2018-09-14T23:08:41.014Z,99928.33
2018-09-14T23:11:10.371Z,99932.27
2018-09-14T23:13:39.540Z,99936.48
2018-09-14T23:16:08.487Z,99929.38
2018-09-14T23:18:37.437Z,99934.09
2018-09-14T23:21:06.380Z,99931.61
2018-09-14T23:23:35.341Z,99928.26
2018-09-14T23:26:13.006Z,99931.27
2018-09-14T23:28:42.019Z,99937.08
2018-09-14T23:31:10.960Z,99932.28
2018-09-14T23:33:39.955Z,99936.73
2018-09-14T23:36:08.906Z,99937.10
2018-09-14T23:38:37.860Z,99932.31
2018-09-14T23:41:06.862Z,99930.64
2018-09-14T23:43:35.798Z,99940.61
2018-09-14T23:46:04.777Z,99935.30
2018-09-14T23:48:33.799Z,99932.58
2018-09-14T23:51:02.778Z,99935.20
2018-09-14T23:53:31.720Z,99938.66
2018-09-14T23:56:00.695Z,99929.09
2018-09-14T23:58:29.629Z,99932.70
